sensor_id;sensor_type;location;lat;lon;timestamp;pressure;altitude;pressure_sealevel;temperature
6550;BMP280;15142;48.888;9.134;2023-03-21T00:01:37;98326.09;;;9.72
6550;BMP280;15142;48.888;9.134;2023-03-21T00:04:04;98331.44;;;9.75
6550;BMP280;15142;48.888;9.134;2023-03-21T00:06:31;98323.78;;;9.70
6550;BMP280;15142;48.888;9.134;2023-03-21T00:08:58;98324.78;;;9.74
6550;BMP280;15142;48.888;9.134;2023-03-21T00:11:26;98323.78;;;9.70
6550;BMP280;15142;48.888;9.134;2023-03-21T00:13:53;98323.03;;;9.70
6550;BMP280;15142;48.888;9.134;2023-03-21T00:16:27;98320.44;;;9.75
6550;BMP280;15142;48.888;9.134;2023-03-21T00:18:55;98326.34;;;9.75
6550;BMP280;15142;48.888;9.134;2023-03-21T00:21:23;98320.25;;;9.71
6550;BMP280;15142;48.888;9.134;2023-03-21T00:23:53;98315.63;;;9.68
6550;BMP280;15142;48.888;9.134;2023-03-21T00:26:20;98317.69;;;9.61
6550;BMP280;15142;48.888;9.134;2023-03-21T00:28:49;98312.34;;;9.63
6550;BMP280;15142;48.888;9.134;2023-03-21T00:31:16;98310.81;;;9.62
6550;BMP280;15142;48.888;9.134;2023-03-21T00:33:43;98308.75;;;9.64
6550;BMP280;15142;48.888;9.134;2023-03-21T00:36:11;98304.69;;;9.68
6550;BMP280;15142;48.888;9.134;2023-03-21T00:38:38;98293.22;;;9.70
6550;BMP280;15142;48.888;9.134;2023-03-21T00:41:08;98302.38;;;9.76
6550;BMP280;15142;48.888;9.134;2023-03-21T00:43:35;98303.63;;;9.84
6550;BMP280;15142;48.888;9.134;2023-03-21T00:46:03;98289.88;;;9.75
6550;BMP280;15142;48.888;9.134;2023-03-21T00:48:30;98280.72;;;9.69
6550;BMP280;15142;48.888;9.134;2023-03-21T00:50:57;98288.13;;;9.65
6550;BMP280;15142;48.888;9.134;2023-03-21T00:53:26;98272.31;;;9.63
6550;BMP280;15142;48.888;9.134;2023-03-21T00:55:52;98277.94;;;9.65
6550;BMP280;15142;48.888;9.134;2023-03-21T00:58:19;98281.22;;;9.66
6550;BMP280;15142;48.888;9.134;2023-03-21T01:00:45;98276.69;;;9.63
6550;BMP280;15142;48.888;9.134;2023-03-21T01:03:14;98275.91;;;9.57
6550;BMP280;15142;48.888;9.134;2023-03-21T01:05:43;98276.91;;;9.56
6550;BMP280;15142;48.888;9.134;2023-03-21T01:08:31;98276.66;;;9.58
6550;BMP280;15142;48.888;9.134;2023-03-21T01:11:01;98274.63;;;9.60
6550;BMP280;15142;48.888;9.134;2023-03-21T01:13:28;98271.59;;;9.63
6550;BMP280;15142;48.888;9.134;2023-03-21T01:15:56;98267.22;;;9.63
6550;BMP280;15142;48.888;9.134;2023-03-21T01:18:26;98268.78;;;9.55
6550;BMP280;15142;48.888;9.134;2023-03-21T01:20:54;98270.81;;;9.53
6550;BMP280;15142;48.888;9.134;2023-03-21T01:23:21;98270.56;;;9.54
6550;BMP280;15142;48.888;9.134;2023-03-21T01:25:49;98264.72;;;9.54
6550;BMP280;15142;48.888;9.134;2023-03-21T01:28:17;98265.97;;;9.56
6550;BMP280;15142;48.888;9.134;2023-03-21T01:30:44;98257.06;;;9.54
6550;BMP280;15142;48.888;9.134;2023-03-21T01:33:11;98250.44;;;9.48
6550;BMP280;15142;48.888;9.134;2023-03-21T01:35:39;98255.81;;;9.46
6550;BMP280;15142;48.888;9.134;2023-03-21T01:38:06;98257.84;;;9.44
6550;BMP280;15142;48.888;9.134;2023-03-21T01:42:59;98258.09;;;9.48
6550;BMP280;15142;48.888;9.134;2023-03-21T01:47:58;98253.25;;;9.41
6550;BMP280;15142;48.888;9.134;2023-03-21T01:50:37;98254.78;;;9.42
6550;BMP280;15142;48.888;9.134;2023-03-21T01:53:21;98256.56;;;9.37
6550;BMP280;15142;48.888;9.134;2023-03-21T01:55:52;98263.94;;;9.38
6550;BMP280;15142;48.888;9.134;2023-03-21T01:58:32;98247.38;;;9.41
6550;BMP280;15142;48.888;9.134;2023-03-21T02:01:12;98252.75;;;9.44
6550;BMP280;15142;48.888;9.134;2023-03-21T02:03:48;98242.81;;;9.43
6550;BMP280;15142;48.888;9.134;2023-03-21T02:06:28;98245.34;;;9.38
6550;BMP280;15142;48.888;9.134;2023-03-21T02:09:01;98236.22;;;9.32
6550;BMP280;15142;48.888;9.134;2023-03-21T02:11:29;98240.31;;;9.23
6550;BMP280;15142;48.888;9.134;2023-03-21T02:13:57;98248.44;;;9.25
6550;BMP280;15142;48.888;9.134;2023-03-21T02:16:32;98242.59;;;9.20
6550;BMP280;15142;48.888;9.134;2023-03-21T02:19:11;98246.66;;;9.21
6550;BMP280;15142;48.888;9.134;2023-03-21T02:22:03;98242.59;;;9.20
6550;BMP280;15142;48.888;9.134;2023-03-21T02:24:56;98236.25;;;9.17
6550;BMP280;15142;48.888;9.134;2023-03-21T02:27:28;98245.41;;;9.18
6550;BMP280;15142;48.888;9.134;2023-03-21T02:30:31;98239.31;;;9.19
6550;BMP280;15142;48.888;9.134;2023-03-21T02:36:15;98233.19;;;9.20
6550;BMP280;15142;48.888;9.134;2023-03-21T02:38:51;98233.19;;;9.15
6550;BMP280;15142;48.888;9.134;2023-03-21T02:41:25;98227.09;;;9.11
6550;BMP280;15142;48.888;9.134;2023-03-21T02:43:57;98226.03;;;9.12
6550;BMP280;15142;48.888;9.134;2023-03-21T02:46:29;98222.00;;;9.11
6550;BMP280;15142;48.888;9.134;2023-03-21T02:49:02;98222.00;;;9.11
6550;BMP280;15142;48.888;9.134;2023-03-21T02:51:32;98228.34;;;9.09
6550;BMP280;15142;48.888;9.134;2023-03-21T02:54:14;98220.97;;;9.07
6550;BMP280;15142;48.888;9.134;2023-03-21T02:56:43;98215.88;;;9.07
6550;BMP280;15142;48.888;9.134;2023-03-21T02:59:10;98219.44;;;9.06
6550;BMP280;15142;48.888;9.134;2023-03-21T03:01:36;98211.78;;;9.06
6550;BMP280;15142;48.888;9.134;2023-03-21T03:04:03;98222.22;;;9.05
6550;BMP280;15142;48.888;9.134;2023-03-21T03:09:14;98223.53;;;9.02
6550;BMP280;15142;48.888;9.134;2023-03-21T03:11:43;98216.63;;;8.98
6550;BMP280;15142;48.888;9.134;2023-03-21T03:14:22;98213.84;;;8.99
6550;BMP280;15142;48.888;9.134;2023-03-21T03:17:04;98219.94;;;9.03
6550;BMP280;15142;48.888;9.134;2023-03-21T03:22:02;98203.91;;;8.93
6550;BMP280;15142;48.888;9.134;2023-03-21T03:24:34;98214.38;;;9.01
6550;BMP280;15142;48.888;9.134;2023-03-21T03:27:03;98205.69;;;8.93
6550;BMP280;15142;48.888;9.134;2023-03-21T03:32:02;98211.03;;;8.91
6550;BMP280;15142;48.888;9.134;2023-03-21T03:37:03;98207.72;;;8.91
6550;BMP280;15142;48.888;9.134;2023-03-21T03:42:04;98212.81;;;8.91
6550;BMP280;15142;48.888;9.134;2023-03-21T03:44:36;98201.88;;;8.90
6550;BMP280;15142;48.888;9.134;2023-03-21T03:47:08;98192.72;;;8.84
6550;BMP280;15142;48.888;9.134;2023-03-21T03:49:38;98203.66;;;8.90
6550;BMP280;15142;48.888;9.134;2023-03-21T03:52:08;98201.38;;;8.88
6550;BMP280;15142;48.888;9.134;2023-03-21T03:54:42;98204.94;;;8.92
6550;BMP280;15142;48.888;9.134;2023-03-21T03:57:11;98203.66;;;8.90
6550;BMP280;15142;48.888;9.134;2023-03-21T03:59:40;98207.22;;;8.89
6550;BMP280;15142;48.888;9.134;2023-03-21T04:02:30;98200.84;;;8.86
6550;BMP280;15142;48.888;9.134;2023-03-21T04:04:59;98209.00;;;8.83
6550;BMP280;15142;48.888;9.134;2023-03-21T04:07:26;98205.69;;;8.78
6550;BMP280;15142;48.888;9.134;2023-03-21T04:09:57;98186.09;;;8.68
6550;BMP280;15142;48.888;9.134;2023-03-21T04:12:24;98200.06;;;8.71
6550;BMP280;15142;48.888;9.134;2023-03-21T04:14:59;98194.75;;;8.67
6550;BMP280;15142;48.888;9.134;2023-03-21T04:17:26;98192.19;;;8.63
6550;BMP280;15142;48.888;9.134;2023-03-21T04:19:53;98193.47;;;8.60
6550;BMP280;15142;48.888;9.134;2023-03-21T04:22:21;98194.75;;;8.63
6550;BMP280;15142;48.888;9.134;2023-03-21T04:24:49;98190.16;;;8.64
6550;BMP280;15142;48.888;9.134;2023-03-21T04:27:16;98196.81;;;8.65
6550;BMP280;15142;48.888;9.134;2023-03-21T04:30:00;98196.00;;;8.65
6550;BMP280;15142;48.888;9.134;2023-03-21T04:32:52;98186.06;;;8.59
6550;BMP280;15142;48.888;9.134;2023-03-21T04:35:23;98186.56;;;8.51
6550;BMP280;15142;48.888;9.134;2023-03-21T04:37:51;98185.28;;;8.43
6550;BMP280;15142;48.888;9.134;2023-03-21T04:40:17;98182.50;;;8.40
6550;BMP280;15142;48.888;9.134;2023-03-21T04:42:44;98184.53;;;8.38
6550;BMP280;15142;48.888;9.134;2023-03-21T04:45:13;98187.06;;;8.33
6550;BMP280;15142;48.888;9.134;2023-03-21T04:47:43;98184.28;;;8.34
6550;BMP280;15142;48.888;9.134;2023-03-21T04:50:10;98185.03;;;8.35
6550;BMP280;15142;48.888;9.134;2023-03-21T04:52:38;98177.94;;;8.37
6550;BMP280;15142;48.888;9.134;2023-03-21T04:55:06;98179.69;;;8.41
6550;BMP280;15142;48.888;9.134;2023-03-21T04:59:59;98184.53;;;8.48
6550;BMP280;15142;48.888;9.134;2023-03-21T05:02:27;98179.22;;;8.44
6550;BMP280;15142;48.888;9.134;2023-03-21T05:04:54;98182.75;;;8.43
6550;BMP280;15142;48.888;9.134;2023-03-21T05:07:22;98186.09;;;8.44
6550;BMP280;15142;48.888;9.134;2023-03-21T05:09:51;98185.81;;;8.45
6550;BMP280;15142;48.888;9.134;2023-03-21T05:12:18;98186.06;;;8.49
6550;BMP280;15142;48.888;9.134;2023-03-21T05:14:45;98189.38;;;8.49
6550;BMP280;15142;48.888;9.134;2023-03-21T05:17:13;98186.81;;;8.49
6550;BMP280;15142;48.888;9.134;2023-03-21T05:19:51;98193.44;;;8.50
6550;BMP280;15142;48.888;9.134;2023-03-21T05:22:18;98189.63;;;8.48
6550;BMP280;15142;48.888;9.134;2023-03-21T05:24:45;98192.69;;;8.45
6550;BMP280;15142;48.888;9.134;2023-03-21T05:27:19;98191.91;;;8.39
6550;BMP280;15142;48.888;9.134;2023-03-21T05:30:00;98183.00;;;8.32
6550;BMP280;15142;48.888;9.134;2023-03-21T05:32:30;98199.78;;;8.33
6550;BMP280;15142;48.888;9.134;2023-03-21T05:35:00;98185.25;;;8.29
6550;BMP280;15142;48.888;9.134;2023-03-21T05:37:27;98190.13;;;8.35
6550;BMP280;15142;48.888;9.134;2023-03-21T05:39:56;98191.41;;;8.42
6550;BMP280;15142;48.888;9.134;2023-03-21T05:42:28;98185.81;;;8.45
6550;BMP280;15142;48.888;9.134;2023-03-21T05:44:55;98192.19;;;8.53
6550;BMP280;15142;48.888;9.134;2023-03-21T05:47:27;98196.78;;;8.56
6550;BMP280;15142;48.888;9.134;2023-03-21T05:49:56;98196.53;;;8.62
6550;BMP280;15142;48.888;9.134;2023-03-21T05:52:25;98203.66;;;8.70
6550;BMP280;15142;48.888;9.134;2023-03-21T05:54:52;98200.09;;;8.76
6550;BMP280;15142;48.888;9.134;2023-03-21T05:57:22;98196.03;;;8.75
6550;BMP280;15142;48.888;9.134;2023-03-21T05:59:58;98199.06;;;8.77
6550;BMP280;15142;48.888;9.134;2023-03-21T06:02:26;98195.00;;;8.81
6550;BMP280;15142;48.888;9.134;2023-03-21T06:04:54;98200.09;;;8.86
6550;BMP280;15142;48.888;9.134;2023-03-21T06:07:22;98196.50;;;8.87
6550;BMP280;15142;48.888;9.134;2023-03-21T06:09:50;98202.63;;;8.91
6550;BMP280;15142;48.888;9.134;2023-03-21T06:12:17;98207.72;;;8.95
6550;BMP280;15142;48.888;9.134;2023-03-21T06:14:59;98201.84;;;8.95
6550;BMP280;15142;48.888;9.134;2023-03-21T06:20:05;98207.72;;;8.95
6550;BMP280;15142;48.888;9.134;2023-03-21T06:22:39;98199.56;;;8.94
6550;BMP280;15142;48.888;9.134;2023-03-21T06:25:08;98198.31;;;8.96
6550;BMP280;15142;48.888;9.134;2023-03-21T06:30:04;98204.91;;;8.97
6550;BMP280;15142;48.888;9.134;2023-03-21T06:32:36;98201.38;;;8.98
6550;BMP280;15142;48.888;9.134;2023-03-21T06:35:10;98202.88;;;8.99
6550;BMP280;15142;48.888;9.134;2023-03-21T06:37:37;98189.38;;;9.03
6550;BMP280;15142;48.888;9.134;2023-03-21T06:40:05;98189.13;;;9.05
6550;BMP280;15142;48.888;9.134;2023-03-21T06:45:13;98190.94;;;9.09
6550;BMP280;15142;48.888;9.134;2023-03-21T06:47:41;98190.94;;;9.09
6550;BMP280;15142;48.888;9.134;2023-03-21T06:50:17;98190.38;;;9.12
6550;BMP280;15142;48.888;9.134;2023-03-21T06:52:43;98189.38;;;9.23
6550;BMP280;15142;48.888;9.134;2023-03-21T06:55:12;98191.38;;;9.31
6550;BMP280;15142;48.888;9.134;2023-03-21T06:57:38;98188.84;;;9.36
6550;BMP280;15142;48.888;9.134;2023-03-21T07:00:07;98190.59;;;9.30
6550;BMP280;15142;48.888;9.134;2023-03-21T07:02:39;98188.84;;;9.36
6550;BMP280;15142;48.888;9.134;2023-03-21T07:05:14;98184.72;;;9.45
6550;BMP280;15142;48.888;9.134;2023-03-21T07:07:41;98183.66;;;9.56
6550;BMP280;15142;48.888;9.134;2023-03-21T07:10:08;98187.19;;;9.64
6550;BMP280;15142;48.888;9.134;2023-03-21T07:12:57;98191.50;;;9.74
6550;BMP280;15142;48.888;9.134;2023-03-21T07:15:34;98191.19;;;9.90
6550;BMP280;15142;48.888;9.134;2023-03-21T07:18:12;98189.97;;;10.25
6550;BMP280;15142;48.888;9.134;2023-03-21T07:20:45;98190.41;;;10.37
6550;BMP280;15142;48.888;9.134;2023-03-21T07:23:13;98188.59;;;10.43
6550;BMP280;15142;48.888;9.134;2023-03-21T07:25:40;98189.84;;;10.45
6550;BMP280;15142;48.888;9.134;2023-03-21T07:28:07;98195.13;;;10.53
6550;BMP280;15142;48.888;9.134;2023-03-21T07:32:59;98201.97;;;10.63
6550;BMP280;15142;48.888;9.134;2023-03-21T07:35:27;98205.38;;;10.81
6550;BMP280;15142;48.888;9.134;2023-03-21T07:37:54;98203.66;;;11.00
6550;BMP280;15142;48.888;9.134;2023-03-21T07:40:22;98204.03;;;11.17
6550;BMP280;15142;48.888;9.134;2023-03-21T07:42:48;98205.56;;;11.18
6550;BMP280;15142;48.888;9.134;2023-03-21T07:45:26;98206.28;;;11.46
6550;BMP280;15142;48.888;9.134;2023-03-21T07:47:53;98206.72;;;11.53
6550;BMP280;15142;48.888;9.134;2023-03-21T07:50:19;98208.13;;;11.41
6550;BMP280;15142;48.888;9.134;2023-03-21T07:52:48;98202.53;;;11.39
6550;BMP280;15142;48.888;9.134;2023-03-21T07:55:14;98198.38;;;11.43
6550;BMP280;15142;48.888;9.134;2023-03-21T07:57:42;98196.78;;;11.70
6550;BMP280;15142;48.888;9.134;2023-03-21T08:00:09;98189.63;;;11.90
6550;BMP280;15142;48.888;9.134;2023-03-21T08:02:41;98189.91;;;12.07
6550;BMP280;15142;48.888;9.134;2023-03-21T08:05:07;98196.88;;;12.20
6550;BMP280;15142;48.888;9.134;2023-03-21T08:10:12;98195.28;;;12.42
6550;BMP280;15142;48.888;9.134;2023-03-21T08:12:39;98198.31;;;12.44
6550;BMP280;15142;48.888;9.134;2023-03-21T08:15:06;98193.97;;;12.26
6550;BMP280;15142;48.888;9.134;2023-03-21T08:17:33;98181.97;;;12.08
6550;BMP280;15142;48.888;9.134;2023-03-21T08:20:14;98182.56;;;12.19
6550;BMP280;15142;48.888;9.134;2023-03-21T08:22:41;98185.25;;;12.27
6550;BMP280;15142;48.888;9.134;2023-03-21T08:25:10;98179.56;;;12.48
6550;BMP280;15142;48.888;9.134;2023-03-21T08:27:39;98186.19;;;12.31
6550;BMP280;15142;48.888;9.134;2023-03-21T08:30:07;98179.25;;;12.68
6550;BMP280;15142;48.888;9.134;2023-03-21T08:32:33;98184.00;;;13.01
6550;BMP280;15142;48.888;9.134;2023-03-21T08:35:15;98166.66;;;13.11
6550;BMP280;15142;48.888;9.134;2023-03-21T08:37:42;98171.78;;;13.24
6550;BMP280;15142;48.888;9.134;2023-03-21T08:40:11;98168.81;;;13.57
6550;BMP280;15142;48.888;9.134;2023-03-21T08:42:39;98170.97;;;13.64
6550;BMP280;15142;48.888;9.134;2023-03-21T08:45:07;98151.97;;;13.65
6550;BMP280;15142;48.888;9.134;2023-03-21T08:49:59;98156.06;;;13.52
6550;BMP280;15142;48.888;9.134;2023-03-21T08:52:27;98157.88;;;13.65
6550;BMP280;15142;48.888;9.134;2023-03-21T08:54:54;98156.59;;;13.63
6550;BMP280;15142;48.888;9.134;2023-03-21T08:57:21;98146.34;;;13.28
6550;BMP280;15142;48.888;9.134;2023-03-21T08:59:47;98147.88;;;13.64
6550;BMP280;15142;48.888;9.134;2023-03-21T09:02:15;98145.53;;;14.10
6550;BMP280;15142;48.888;9.134;2023-03-21T09:04:42;98142.69;;;14.12
6550;BMP280;15142;48.888;9.134;2023-03-21T09:07:09;98147.34;;;14.31
6550;BMP280;15142;48.888;9.134;2023-03-21T09:12:08;98135.13;;;14.07
6550;BMP280;15142;48.888;9.134;2023-03-21T09:17:00;98148.53;;;14.26
6550;BMP280;15142;48.888;9.134;2023-03-21T09:19:27;98134.69;;;14.43
6550;BMP280;15142;48.888;9.134;2023-03-21T09:21:54;98146.09;;;14.51
6550;BMP280;15142;48.888;9.134;2023-03-21T09:24:22;98143.66;;;14.54
6550;BMP280;15142;48.888;9.134;2023-03-21T09:26:48;98149.78;;;14.36
6550;BMP280;15142;48.888;9.134;2023-03-21T09:29:17;98146.47;;;14.44
6550;BMP280;15142;48.888;9.134;2023-03-21T09:31:45;98142.72;;;14.80
6550;BMP280;15142;48.888;9.134;2023-03-21T09:34:12;98146.16;;;14.67
6550;BMP280;15142;48.888;9.134;2023-03-21T09:36:40;98139.91;;;14.60
6550;BMP280;15142;48.888;9.134;2023-03-21T09:39:08;98140.25;;;14.59
6550;BMP280;15142;48.888;9.134;2023-03-21T09:44:10;98142.41;;;15.37
6550;BMP280;15142;48.888;9.134;2023-03-21T09:46:45;98142.38;;;15.20
6550;BMP280;15142;48.888;9.134;2023-03-21T09:49:17;98144.28;;;14.89
6550;BMP280;15142;48.888;9.134;2023-03-21T09:51:48;98134.75;;;14.82
6550;BMP280;15142;48.888;9.134;2023-03-21T09:54:19;98128.97;;;15.40
6550;BMP280;15142;48.888;9.134;2023-03-21T09:56:48;98125.50;;;15.61
6550;BMP280;15142;48.888;9.134;2023-03-21T09:59:21;98128.81;;;15.61
6550;BMP280;15142;48.888;9.134;2023-03-21T10:01:52;98118.81;;;15.51
6550;BMP280;15142;48.888;9.134;2023-03-21T10:04:20;98118.69;;;15.56
6550;BMP280;15142;48.888;9.134;2023-03-21T10:06:56;98115.16;;;15.77
6550;BMP280;15142;48.888;9.134;2023-03-21T10:09:25;98112.59;;;15.77
6550;BMP280;15142;48.888;9.134;2023-03-21T10:11:55;98118.03;;;16.01
6550;BMP280;15142;48.888;9.134;2023-03-21T10:14:27;98113.94;;;16.00
6550;BMP280;15142;48.888;9.134;2023-03-21T10:16:57;98117.88;;;15.89
6550;BMP280;15142;48.888;9.134;2023-03-21T10:19:26;98113.63;;;16.01
6550;BMP280;15142;48.888;9.134;2023-03-21T10:21:53;98112.59;;;16.02
6550;BMP280;15142;48.888;9.134;2023-03-21T10:24:21;98104.44;;;15.92
6550;BMP280;15142;48.888;9.134;2023-03-21T10:26:50;98107.16;;;15.96
6550;BMP280;15142;48.888;9.134;2023-03-21T10:29:20;98101.81;;;16.00
6550;BMP280;15142;48.888;9.134;2023-03-21T10:31:49;98090.88;;;16.20
6550;BMP280;15142;48.888;9.134;2023-03-21T10:34:19;98090.69;;;16.25
6550;BMP280;15142;48.888;9.134;2023-03-21T10:36:48;98079.03;;;16.28
6550;BMP280;15142;48.888;9.134;2023-03-21T10:39:22;98090.94;;;16.40
6550;BMP280;15142;48.888;9.134;2023-03-21T10:41:50;98087.63;;;16.68
6550;BMP280;15142;48.888;9.134;2023-03-21T10:44:18;98084.69;;;16.50
6550;BMP280;15142;48.888;9.134;2023-03-21T10:46:52;98081.56;;;16.64
6550;BMP280;15142;48.888;9.134;2023-03-21T10:49:21;98078.03;;;16.97
6550;BMP280;15142;48.888;9.134;2023-03-21T10:51:50;98087.41;;;17.02
6550;BMP280;15142;48.888;9.134;2023-03-21T10:54:19;98076.72;;;16.91
6550;BMP280;15142;48.888;9.134;2023-03-21T10:56:55;98075.44;;;16.77
6550;BMP280;15142;48.888;9.134;2023-03-21T10:59:25;98083.38;;;16.72
6550;BMP280;15142;48.888;9.134;2023-03-21T11:01:54;98073.94;;;16.76
6550;BMP280;15142;48.888;9.134;2023-03-21T11:04:25;98077.13;;;16.73
6550;BMP280;15142;48.888;9.134;2023-03-21T11:06:53;98072.44;;;16.75
6550;BMP280;15142;48.888;9.134;2023-03-21T11:09:23;98077.38;;;16.60
6550;BMP280;15142;48.888;9.134;2023-03-21T11:11:52;98070.56;;;16.56
6550;BMP280;15142;48.888;9.134;2023-03-21T11:14:31;98057.78;;;16.59
6550;BMP280;15142;48.888;9.134;2023-03-21T11:16:59;98057.25;;;16.74
6550;BMP280;15142;48.888;9.134;2023-03-21T11:19:29;98064.75;;;16.87
6550;BMP280;15142;48.888;9.134;2023-03-21T11:21:57;98071.09;;;16.69
6550;BMP280;15142;48.888;9.134;2023-03-21T11:24:27;98063.94;;;16.18
6550;BMP280;15142;48.888;9.134;2023-03-21T11:26:55;98057.66;;;16.27
6550;BMP280;15142;48.888;9.134;2023-03-21T11:29:28;98061.19;;;16.43
6550;BMP280;15142;48.888;9.134;2023-03-21T11:31:57;98050.88;;;16.51
6550;BMP280;15142;48.888;9.134;2023-03-21T11:34:31;98058.53;;;16.31
6550;BMP280;15142;48.888;9.134;2023-03-21T11:37:01;98051.25;;;16.33
6550;BMP280;15142;48.888;9.134;2023-03-21T11:42:00;98048.38;;;15.98
6550;BMP280;15142;48.888;9.134;2023-03-21T11:44:30;98048.66;;;16.04
6550;BMP280;15142;48.888;9.134;2023-03-21T11:46:57;98038.75;;;16.15
6550;BMP280;15142;48.888;9.134;2023-03-21T11:49:24;98033.91;;;16.13
6550;BMP280;15142;48.888;9.134;2023-03-21T11:52:00;98031.13;;;15.90
6550;BMP280;15142;48.888;9.134;2023-03-21T11:57:04;98021.81;;;16.05
6550;BMP280;15142;48.888;9.134;2023-03-21T12:02:14;98022.22;;;15.87
6550;BMP280;15142;48.888;9.134;2023-03-21T12:04:46;98014.66;;;15.82
6550;BMP280;15142;48.888;9.134;2023-03-21T12:07:33;98014.56;;;15.45
6550;BMP280;15142;48.888;9.134;2023-03-21T12:10:10;98017.00;;;15.42
6550;BMP280;15142;48.888;9.134;2023-03-21T12:12:44;98008.25;;;15.35
6550;BMP280;15142;48.888;9.134;2023-03-21T12:15:17;98009.91;;;15.22
6550;BMP280;15142;48.888;9.134;2023-03-21T12:17:51;97991.59;;;15.07
6550;BMP280;15142;48.888;9.134;2023-03-21T12:23:26;97994.75;;;15.54
6550;BMP280;15142;48.888;9.134;2023-03-21T12:26:02;97999.56;;;15.64
6550;BMP280;15142;48.888;9.134;2023-03-21T12:31:06;97983.78;;;15.66
6550;BMP280;15142;48.888;9.134;2023-03-21T12:36:08;97989.41;;;16.04
6550;BMP280;15142;48.888;9.134;2023-03-21T12:38:45;97980.56;;;16.22
6550;BMP280;15142;48.888;9.134;2023-03-21T12:41:23;97971.75;;;16.31
6550;BMP280;15142;48.888;9.134;2023-03-21T12:43:55;97968.91;;;16.45
6550;BMP280;15142;48.888;9.134;2023-03-21T12:46:28;97967.47;;;16.35
6550;BMP280;15142;48.888;9.134;2023-03-21T12:48:59;97967.63;;;16.30
6550;BMP280;15142;48.888;9.134;2023-03-21T12:51:29;97970.97;;;16.51
6550;BMP280;15142;48.888;9.134;2023-03-21T12:54:07;97967.06;;;16.45
6550;BMP280;15142;48.888;9.134;2023-03-21T12:59:07;97976.84;;;17.32
6550;BMP280;15142;48.888;9.134;2023-03-21T13:04:29;97967.44;;;17.16
6550;BMP280;15142;48.888;9.134;2023-03-21T13:06:59;97960.91;;;16.98
6550;BMP280;15142;48.888;9.134;2023-03-21T13:09:33;97964.69;;;17.33
6550;BMP280;15142;48.888;9.134;2023-03-21T13:12:05;97969.78;;;17.41
6550;BMP280;15142;48.888;9.134;2023-03-21T13:17:02;97954.91;;;16.74
6550;BMP280;15142;48.888;9.134;2023-03-21T13:19:34;97958.69;;;16.77
6550;BMP280;15142;48.888;9.134;2023-03-21T13:22:05;97954.66;;;16.67
6550;BMP280;15142;48.888;9.134;2023-03-21T13:27:02;97949.56;;;16.10
6550;BMP280;15142;48.888;9.134;2023-03-21T13:29:32;97944.94;;;16.24
6550;BMP280;15142;48.888;9.134;2023-03-21T13:32:07;97940.41;;;16.21
6550;BMP280;15142;48.888;9.134;2023-03-21T13:37:00;97931.78;;;16.46
6550;BMP280;15142;48.888;9.134;2023-03-21T13:39:28;97936.72;;;16.30
6550;BMP280;15142;48.888;9.134;2023-03-21T13:42:04;97937.09;;;16.21
6550;BMP280;15142;48.888;9.134;2023-03-21T13:47:05;97934.09;;;16.10
6550;BMP280;15142;48.888;9.134;2023-03-21T13:49:34;97932.66;;;15.93
6550;BMP280;15142;48.888;9.134;2023-03-21T13:52:06;97915.94;;;15.78
6550;BMP280;15142;48.888;9.134;2023-03-21T13:54:50;97916.66;;;15.87
6550;BMP280;15142;48.888;9.134;2023-03-21T13:57:35;97918.59;;;16.19
6550;BMP280;15142;48.888;9.134;2023-03-21T14:00:18;97914.47;;;16.26
6550;BMP280;15142;48.888;9.134;2023-03-21T14:02:52;97908.38;;;16.30
6550;BMP280;15142;48.888;9.134;2023-03-21T14:05:22;97906.25;;;16.12
6550;BMP280;15142;48.888;9.134;2023-03-21T14:07:52;97903.22;;;16.10
6550;BMP280;15142;48.888;9.134;2023-03-21T14:10:23;97899.09;;;16.38
6550;BMP280;15142;48.888;9.134;2023-03-21T14:12:52;97897.63;;;16.49
6550;BMP280;15142;48.888;9.134;2023-03-21T14:15:21;97894.69;;;16.58
6550;BMP280;15142;48.888;9.134;2023-03-21T14:17:50;97893.81;;;16.55
6550;BMP280;15142;48.888;9.134;2023-03-21T14:20:21;97892.09;;;16.18
6550;BMP280;15142;48.888;9.134;2023-03-21T14:22:48;97894.31;;;16.48
6550;BMP280;15142;48.888;9.134;2023-03-21T14:25:17;97897.72;;;16.40
6550;BMP280;15142;48.888;9.134;2023-03-21T14:27:46;97900.81;;;16.05
6550;BMP280;15142;48.888;9.134;2023-03-21T14:30:22;97905.03;;;16.10
6550;BMP280;15142;48.888;9.134;2023-03-21T14:32:53;97897.50;;;16.25
6550;BMP280;15142;48.888;9.134;2023-03-21T14:35:20;97900.53;;;16.27
6550;BMP280;15142;48.888;9.134;2023-03-21T14:37:47;97902.91;;;16.12
6550;BMP280;15142;48.888;9.134;2023-03-21T14:40:21;97903.91;;;16.19
6550;BMP280;15142;48.888;9.134;2023-03-21T14:42:49;97895.69;;;16.26
6550;BMP280;15142;48.888;9.134;2023-03-21T14:45:19;97890.56;;;16.26
6550;BMP280;15142;48.888;9.134;2023-03-21T14:47:55;97899.16;;;16.01
6550;BMP280;15142;48.888;9.134;2023-03-21T14:50:29;97889.44;;;15.78
6550;BMP280;15142;48.888;9.134;2023-03-21T14:52:57;97891.75;;;15.99
6550;BMP280;15142;48.888;9.134;2023-03-21T14:55:24;97887.41;;;16.20
6550;BMP280;15142;48.888;9.134;2023-03-21T14:57:53;97888.91;;;16.41
6550;BMP280;15142;48.888;9.134;2023-03-21T15:00:24;97892.09;;;16.38
6550;BMP280;15142;48.888;9.134;2023-03-21T15:02:53;97889.09;;;16.16
6550;BMP280;15142;48.888;9.134;2023-03-21T15:05:23;97892.13;;;15.90
6550;BMP280;15142;48.888;9.134;2023-03-21T15:07:55;97889.91;;;15.80
6550;BMP280;15142;48.888;9.134;2023-03-21T15:10:22;97891.34;;;15.89
6550;BMP280;15142;48.888;9.134;2023-03-21T15:12:51;97887.19;;;15.76
6550;BMP280;15142;48.888;9.134;2023-03-21T15:15:18;97885.13;;;15.62
6550;BMP280;15142;48.888;9.134;2023-03-21T15:17:48;97875.50;;;15.50
6550;BMP280;15142;48.888;9.134;2023-03-21T15:20:18;97876.19;;;15.59
6550;BMP280;15142;48.888;9.134;2023-03-21T15:22:48;97876.53;;;15.49
6550;BMP280;15142;48.888;9.134;2023-03-21T15:25:20;97879.84;;;15.58
6550;BMP280;15142;48.888;9.134;2023-03-21T15:27:48;97880.78;;;15.54
6550;BMP280;15142;48.888;9.134;2023-03-21T15:30:18;97877.75;;;15.52
6550;BMP280;15142;48.888;9.134;2023-03-21T15:32:47;97887.44;;;15.55
6550;BMP280;15142;48.888;9.134;2023-03-21T15:35:18;97881.06;;;15.52
6550;BMP280;15142;48.888;9.134;2023-03-21T15:37:52;97889.84;;;15.51
6550;BMP280;15142;48.888;9.134;2023-03-21T15:40:21;97892.03;;;15.33
6550;BMP280;15142;48.888;9.134;2023-03-21T15:42:48;97891.44;;;15.27
6550;BMP280;15142;48.888;9.134;2023-03-21T15:45:19;97892.38;;;15.23
6550;BMP280;15142;48.888;9.134;2023-03-21T15:47:53;97889.66;;;15.11
6550;BMP280;15142;48.888;9.134;2023-03-21T15:50:25;97892.38;;;15.15
6550;BMP280;15142;48.888;9.134;2023-03-21T15:52:53;97892.69;;;15.13
6550;BMP280;15142;48.888;9.134;2023-03-21T15:55:22;97889.81;;;15.15
6550;BMP280;15142;48.888;9.134;2023-03-21T15:57:51;97886.81;;;15.04
6550;BMP280;15142;48.888;9.134;2023-03-21T16:00:24;97883.03;;;14.93
6550;BMP280;15142;48.888;9.134;2023-03-21T16:02:57;97887.13;;;14.86